createdAt,value
2023-03-21T00:01:44.369Z,13.57
2023-03-21T00:06:41.175Z,13.31
2023-03-21T00:11:37.942Z,13.62
2023-03-21T00:16:35.735Z,13.59
2023-03-21T00:21:55.317Z,13.34
2023-03-21T00:27:00.210Z,13.43
2023-03-21T00:32:08.142Z,13.33
2023-03-21T00:37:06.741Z,13.01
2023-03-21T00:42:03.695Z,13.34
2023-03-21T00:47:07.466Z,13.59
2023-03-21T00:52:17.054Z,13.60
2023-03-21T00:57:20.158Z,13.06
2023-03-21T01:02:22.351Z,13.34
2023-03-21T01:07:20.665Z,13.06
2023-03-21T01:12:17.752Z,12.34
2023-03-21T01:17:14.799Z,12.14
2023-03-21T01:22:11.748Z,11.97
2023-03-21T01:27:09.258Z,12.13
2023-03-21T01:32:06.543Z,12.57
2023-03-21T01:37:03.570Z,12.29
2023-03-21T01:42:05.008Z,12.56
2023-03-21T01:47:11.853Z,12.58
2023-03-21T01:52:33.349Z,12.54
2023-03-21T01:57:45.242Z,12.49
2023-03-21T02:02:52.151Z,12.44
2023-03-21T02:08:04.046Z,12.00
2023-03-21T02:13:08.970Z,11.40
2023-03-21T02:18:16.993Z,11.34
2023-03-21T02:23:44.285Z,10.76
2023-03-21T02:28:47.068Z,10.77
2023-03-21T02:34:12.699Z,10.75
2023-03-21T02:39:18.602Z,10.27
2023-03-21T02:44:20.975Z,11.00
2023-03-21T02:49:23.201Z,11.18
2023-03-21T02:54:38.358Z,11.46
2023-03-21T02:59:53.233Z,11.63
2023-03-21T03:04:56.994Z,11.72
2023-03-21T03:10:17.051Z,11.68
2023-03-21T03:15:21.541Z,11.68
2023-03-21T03:20:26.541Z,11.21
2023-03-21T03:25:41.534Z,10.78
2023-03-21T03:31:05.516Z,10.68
2023-03-21T03:36:21.575Z,10.81
2023-03-21T03:41:27.054Z,10.56
2023-03-21T03:46:32.917Z,10.94
2023-03-21T03:51:35.907Z,10.85
2023-03-21T03:56:57.819Z,10.75
2023-03-21T04:01:54.959Z,10.66
2023-03-21T04:06:52.805Z,10.52
2023-03-21T04:11:52.513Z,10.36
2023-03-21T04:16:51.596Z,10.12
2023-03-21T04:21:48.533Z,9.65
2023-03-21T04:26:47.831Z,9.56
2023-03-21T04:31:58.267Z,9.16
2023-03-21T04:36:56.160Z,9.25
2023-03-21T04:41:53.257Z,9.08
2023-03-21T04:46:51.164Z,9.41
2023-03-21T04:51:49.312Z,9.65
2023-03-21T04:56:51.459Z,9.84
2023-03-21T05:01:49.622Z,10.50
2023-03-21T05:06:46.538Z,10.20
2023-03-21T05:11:46.875Z,9.96
2023-03-21T05:16:52.498Z,9.73
2023-03-21T05:21:52.829Z,9.70
2023-03-21T05:26:55.519Z,9.59
2023-03-21T05:31:56.177Z,9.61
2023-03-21T05:36:54.347Z,9.49
2023-03-21T05:41:54.962Z,9.72
2023-03-21T05:46:54.319Z,9.00
2023-03-21T05:52:03.912Z,9.77
2023-03-21T05:57:03.610Z,9.25
2023-03-21T06:02:25.976Z,9.99
2023-03-21T06:07:24.826Z,9.85
2023-03-21T06:12:22.521Z,10.46
2023-03-21T06:17:38.822Z,10.42
2023-03-21T06:22:39.626Z,11.28
2023-03-21T06:27:37.398Z,11.10
2023-03-21T06:32:39.377Z,11.66
2023-03-21T06:37:44.897Z,11.68
2023-03-21T06:42:50.969Z,11.95
2023-03-21T06:47:51.777Z,13.65
2023-03-21T06:53:08.434Z,15.61
2023-03-21T06:58:27.513Z,16.57
2023-03-21T07:03:33.209Z,18.01
2023-03-21T07:08:31.525Z,18.76
2023-03-21T07:13:29.279Z,19.08
2023-03-21T07:18:33.318Z,19.19
2023-03-21T07:23:32.380Z,19.31
2023-03-21T07:28:31.593Z,20.16
2023-03-21T07:33:28.751Z,20.52
2023-03-21T07:38:34.495Z,20.63
2023-03-21T07:43:39.929Z,20.94
2023-03-21T07:48:40.251Z,21.01
2023-03-21T07:53:43.313Z,21.80
2023-03-21T07:58:45.421Z,22.47
2023-03-21T08:03:58.818Z,22.78
2023-03-21T08:08:58.800Z,23.39
2023-03-21T08:13:57.719Z,23.75
2023-03-21T08:19:04.820Z,24.71
2023-03-21T08:24:15.390Z,24.11
2023-03-21T08:29:13.952Z,24.29
2023-03-21T08:34:19.226Z,23.57
2023-03-21T08:39:16.383Z,22.81
2023-03-21T08:44:16.927Z,23.22
2023-03-21T08:49:13.973Z,23.55
2023-03-21T08:54:22.285Z,23.45
2023-03-21T08:59:20.976Z,22.94
2023-03-21T09:04:32.137Z,21.87
2023-03-21T09:09:29.338Z,21.02
2023-03-21T09:14:28.998Z,21.16
2023-03-21T09:19:28.674Z,21.03
2023-03-21T09:24:27.593Z,20.88
2023-03-21T09:29:27.359Z,21.53
2023-03-21T09:34:28.324Z,21.18
2023-03-21T09:39:50.066Z,21.27
2023-03-21T09:45:02.184Z,21.08
2023-03-21T09:50:14.194Z,20.44
2023-03-21T09:55:19.369Z,20.00
2023-03-21T10:00:27.371Z,19.85
2023-03-21T10:05:28.002Z,19.91
2023-03-21T10:10:28.355Z,20.07
2023-03-21T10:15:26.747Z,20.24
2023-03-21T10:20:29.093Z,20.58
2023-03-21T10:25:31.075Z,20.77
2023-03-21T10:30:40.052Z,20.48
2023-03-21T10:35:39.736Z,20.27
2023-03-21T10:40:39.987Z,20.11
2023-03-21T10:45:37.145Z,20.01
2023-03-21T10:50:35.871Z,19.65
2023-03-21T10:55:35.369Z,19.49
2023-03-21T11:00:37.407Z,19.36
2023-03-21T11:05:37.273Z,19.52
2023-03-21T11:10:37.413Z,18.96
2023-03-21T11:15:42.190Z,19.20
2023-03-21T11:20:51.853Z,18.91
2023-03-21T11:25:55.226Z,18.70
2023-03-21T11:30:55.015Z,18.97
2023-03-21T11:36:03.053Z,19.03
2023-03-21T11:41:02.471Z,18.98
2023-03-21T11:46:05.490Z,18.86
2023-03-21T11:51:10.691Z,18.63
2023-03-21T11:56:23.259Z,19.05
2023-03-21T12:01:27.363Z,19.22
2023-03-21T12:06:33.865Z,19.37
2023-03-21T12:11:40.241Z,19.33
2023-03-21T12:16:56.595Z,19.23
2023-03-21T12:22:05.400Z,18.95
2023-03-21T12:27:15.044Z,18.64
2023-03-21T12:32:40.735Z,18.46
2023-03-21T12:37:47.626Z,18.17
2023-03-21T12:43:22.319Z,17.91
2023-03-21T12:48:27.579Z,16.98
2023-03-21T12:53:35.541Z,17.27
2023-03-21T12:58:41.059Z,16.99
2023-03-21T13:03:44.737Z,16.80
2023-03-21T13:08:48.385Z,16.91
2023-03-21T13:13:51.226Z,17.34
2023-03-21T13:18:58.894Z,17.59
2023-03-21T13:24:00.729Z,17.38
2023-03-21T13:29:00.497Z,17.82
2023-03-21T13:33:59.796Z,17.73
2023-03-21T13:39:00.692Z,17.83
2023-03-21T13:44:15.987Z,17.84
2023-03-21T13:49:28.634Z,17.89
2023-03-21T13:54:52.602Z,17.98
2023-03-21T14:00:10.541Z,18.08
2023-03-21T14:05:20.086Z,18.27
2023-03-21T14:10:22.014Z,18.51
2023-03-21T14:15:22.267Z,18.70
2023-03-21T14:20:23.496Z,18.70
2023-03-21T14:25:23.254Z,18.99
2023-03-21T14:30:27.235Z,18.33
2023-03-21T14:35:28.704Z,18.56
2023-03-21T14:40:30.639Z,18.22
2023-03-21T14:45:34.398Z,18.05
2023-03-21T14:50:39.651Z,17.87
2023-03-21T14:55:41.647Z,18.14
2023-03-21T15:00:49.495Z,17.54
2023-03-21T15:05:48.222Z,17.72
2023-03-21T15:11:06.271Z,17.63
2023-03-21T15:16:08.926Z,17.37
2023-03-21T15:21:10.217Z,17.50
2023-03-21T15:26:07.315Z,16.75
2023-03-21T15:31:06.710Z,17.14
2023-03-21T15:36:09.636Z,17.09
2023-03-21T15:41:25.436Z,17.02
2023-03-21T15:46:38.830Z,16.72
2023-03-21T15:51:36.169Z,16.54
2023-03-21T15:56:34.409Z,16.82
2023-03-21T16:01:38.266Z,16.77
2023-03-21T16:06:37.713Z,16.16
2023-03-21T16:11:39.436Z,16.54
2023-03-21T16:16:37.878Z,16.64
2023-03-21T16:21:37.754Z,16.45
2023-03-21T16:26:37.038Z,16.73
2023-03-21T16:31:36.659Z,16.53
2023-03-21T16:36:36.580Z,16.79
2023-03-21T16:41:36.392Z,17.04
2023-03-21T16:46:33.149Z,16.59
2023-03-21T16:51:32.925Z,16.74
2023-03-21T16:56:36.132Z,16.91
2023-03-21T17:01:37.736Z,16.23
2023-03-21T17:06:48.891Z,16.59
2023-03-21T17:11:49.206Z,16.12
2023-03-21T17:16:46.392Z,16.44
2023-03-21T17:21:48.617Z,17.01
2023-03-21T17:26:52.088Z,16.53
2023-03-21T17:31:53.282Z,16.54
2023-03-21T17:36:50.682Z,16.27
2023-03-21T17:41:49.122Z,15.84
2023-03-21T17:46:51.167Z,15.19
2023-03-21T17:51:51.414Z,14.89
2023-03-21T17:56:55.009Z,15.26
2023-03-21T18:01:56.899Z,15.55
2023-03-21T18:06:58.784Z,15.26
2023-03-21T18:11:55.795Z,15.38
2023-03-21T18:16:53.683Z,15.08
2023-03-21T18:21:50.790Z,14.92
2023-03-21T18:26:51.314Z,15.21
2023-03-21T18:32:06.331Z,15.00
2023-03-21T18:37:07.622Z,14.93
2023-03-21T18:42:05.222Z,14.93
2023-03-21T18:47:07.239Z,15.07
2023-03-21T18:52:06.074Z,14.94
2023-03-21T18:57:34.178Z,14.96
2023-03-21T19:02:22.853Z,14.98
2023-03-21T19:07:24.251Z,14.99
2023-03-21T19:12:21.271Z,15.01
2023-03-21T19:22:37.218Z,14.98
2023-03-21T19:27:39.828Z,14.78
2023-03-21T19:32:36.788Z,14.27
2023-03-21T19:37:35.568Z,14.85
2023-03-21T19:42:35.575Z,14.32
2023-03-21T19:47:32.800Z,14.89
2023-03-21T19:52:31.479Z,15.24
2023-03-21T19:57:28.256Z,15.58
2023-03-21T20:02:35.401Z,15.64
2023-03-21T20:07:32.834Z,15.77
2023-03-21T20:12:30.108Z,16.07
2023-03-21T20:17:28.413Z,16.06
2023-03-21T20:22:46.089Z,15.99
2023-03-21T20:27:43.883Z,15.81
2023-03-21T20:32:43.594Z,15.79
2023-03-21T20:37:41.054Z,15.73
2023-03-21T20:42:38.802Z,15.48
2023-03-21T20:47:35.907Z,15.38
2023-03-21T20:57:51.031Z,14.41
2023-03-21T21:02:49.293Z,14.45
2023-03-21T21:07:48.349Z,14.39
2023-03-21T21:12:45.279Z,14.24
2023-03-21T21:23:00.893Z,14.34
2023-03-21T21:27:57.968Z,14.37
2023-03-21T21:32:54.866Z,14.09
2023-03-21T21:37:53.036Z,13.89
2023-03-21T21:42:50.883Z,13.86
2023-03-21T21:47:48.030Z,13.55
2023-03-21T21:52:51.755Z,13.79
2023-03-21T21:57:49.985Z,13.73
2023-03-21T22:02:47.769Z,13.62
2023-03-21T22:07:44.951Z,13.44
2023-03-21T22:12:41.797Z,13.65
2023-03-21T22:17:39.935Z,13.55
2023-03-21T22:22:38.024Z,13.69
2023-03-21T22:27:36.121Z,13.57
2023-03-21T22:32:33.641Z,13.31
2023-03-21T22:37:31.067Z,13.25
2023-03-21T22:42:28.742Z,13.24
2023-03-21T22:47:25.684Z,13.16
2023-03-21T22:52:22.457Z,13.00
2023-03-21T22:57:20.145Z,12.66
2023-03-21T23:02:18.021Z,12.41
2023-03-21T23:07:15.087Z,12.15
2023-03-21T23:12:13.537Z,12.25
2023-03-21T23:17:11.953Z,12.41
2023-03-21T23:22:09.647Z,12.28
2023-03-21T23:27:06.451Z,12.20
2023-03-21T23:32:03.420Z,12.12
2023-03-21T23:37:00.217Z,12.22
2023-03-21T23:41:58.292Z,11.95
2023-03-21T23:46:55.231Z,12.10
2023-03-21T23:51:52.013Z,12.17
2023-03-21T23:56:48.888Z,12.16
